KLDJ

Linden Airport

Linden, New Jersey, USA
METAR KLDJ 240155Z AUTO 00000KT 10SM CLR 22/10 A3000 RMK AO2 T02230099
Observed Flight Rules
May-24 @ 01:55 UTC (9 minutes ago) Visual Flight Rules
Visibility Clouds
10 miles
  • Clear skies
Temperatures Readings
Current 22°C / 72°F
Dewpoint 10°C / 50°F
Humidity 47%
Altimeter 30" Hg
Pressure 1016 hPa
Elevation 7
METAR KLDJ 240155Z AUTO 00000KT 10SM CLR 22/10 A3000 RMK AO2 T02230099
Observed Flight Rules
May-24 @ 01:55 UTC
(9 minutes ago)
VFR
Clouds
  • Clear skies
Temperature Dewpoint
22°C / 72°F 10°C / 50°F
Humidity Altimeter Pressure
47% 30" Hg 1016 hPa